sensor_id;sensor_type;location;lat;lon;timestamp;P1;durP1;ratioP1;P2;durP2;ratioP2
20334;SDS011;10325;51.468;5.804;2022-08-18T00:01:41;12.23;;;11.13;;
20334;SDS011;10325;51.468;5.804;2022-08-18T00:04:12;13.23;;;12.03;;
20334;SDS011;10325;51.468;5.804;2022-08-18T00:07:03;13.77;;;12.57;;
20334;SDS011;10325;51.468;5.804;2022-08-18T00:09:35;13.17;;;11.90;;
20334;SDS011;10325;51.468;5.804;2022-08-18T00:12:12;13.50;;;12.30;;
20334;SDS011;10325;51.468;5.804;2022-08-18T00:14:45;12.70;;;11.70;;
20334;SDS011;10325;51.468;5.804;2022-08-18T00:17:19;14.67;;;13.17;;
20334;SDS011;10325;51.468;5.804;2022-08-18T00:19:47;13.93;;;12.73;;
20334;SDS011;10325;51.468;5.804;2022-08-18T00:22:16;13.60;;;12.37;;
20334;SDS011;10325;51.468;5.804;2022-08-18T00:25:00;13.77;;;12.53;;
20334;SDS011;10325;51.468;5.804;2022-08-18T00:27:32;13.67;;;12.50;;
20334;SDS011;10325;51.468;5.804;2022-08-18T00:30:05;13.23;;;12.07;;
20334;SDS011;10325;51.468;5.804;2022-08-18T00:32:37;13.33;;;12.23;;
20334;SDS011;10325;51.468;5.804;2022-08-18T00:35:10;13.33;;;12.13;;
20334;SDS011;10325;51.468;5.804;2022-08-18T00:37:50;13.83;;;12.53;;
20334;SDS011;10325;51.468;5.804;2022-08-18T00:40:24;13.40;;;12.30;;
20334;SDS011;10325;51.468;5.804;2022-08-18T00:43:07;13.33;;;12.20;;
20334;SDS011;10325;51.468;5.804;2022-08-18T00:45:40;13.30;;;12.13;;
20334;SDS011;10325;51.468;5.804;2022-08-18T00:48:12;14.17;;;12.70;;
20334;SDS011;10325;51.468;5.804;2022-08-18T00:50:49;13.87;;;12.57;;
20334;SDS011;10325;51.468;5.804;2022-08-18T00:54:26;14.30;;;13.00;;
20334;SDS011;10325;51.468;5.804;2022-08-18T00:56:28;13.77;;;12.57;;
20334;SDS011;10325;51.468;5.804;2022-08-18T00:59:07;13.77;;;12.43;;
20334;SDS011;10325;51.468;5.804;2022-08-18T01:01:41;14.33;;;12.93;;
20334;SDS011;10325;51.468;5.804;2022-08-18T01:04:19;14.00;;;12.70;;
20334;SDS011;10325;51.468;5.804;2022-08-18T01:06:57;14.20;;;12.70;;
20334;SDS011;10325;51.468;5.804;2022-08-18T01:09:35;13.20;;;12.00;;
20334;SDS011;10325;51.468;5.804;2022-08-18T01:12:06;14.10;;;12.70;;
20334;SDS011;10325;51.468;5.804;2022-08-18T01:15:01;13.97;;;12.57;;
20334;SDS011;10325;51.468;5.804;2022-08-18T01:17:30;13.77;;;12.57;;
20334;SDS011;10325;51.468;5.804;2022-08-18T01:20:28;12.47;;;11.27;;
20334;SDS011;10325;51.468;5.804;2022-08-18T01:23:18;13.23;;;12.13;;
20334;SDS011;10325;51.468;5.804;2022-08-18T01:25:48;13.47;;;12.37;;
20334;SDS011;10325;51.468;5.804;2022-08-18T01:28:33;12.93;;;11.83;;
20334;SDS011;10325;51.468;5.804;2022-08-18T01:31:05;12.90;;;11.70;;
20334;SDS011;10325;51.468;5.804;2022-08-18T01:33:44;13.27;;;12.07;;
20334;SDS011;10325;51.468;5.804;2022-08-18T01:36:18;12.93;;;11.73;;
20334;SDS011;10325;51.468;5.804;2022-08-18T01:38:51;12.03;;;11.03;;
20334;SDS011;10325;51.468;5.804;2022-08-18T01:41:24;13.10;;;11.80;;
20334;SDS011;10325;51.468;5.804;2022-08-18T01:43:57;12.13;;;11.03;;
20334;SDS011;10325;51.468;5.804;2022-08-18T01:46:30;12.47;;;11.37;;
20334;SDS011;10325;51.468;5.804;2022-08-18T01:49:02;12.07;;;11.03;;
20334;SDS011;10325;51.468;5.804;2022-08-18T01:51:33;12.20;;;11.10;;
20334;SDS011;10325;51.468;5.804;2022-08-18T01:54:09;11.60;;;10.60;;
20334;SDS011;10325;51.468;5.804;2022-08-18T01:56:42;12.23;;;11.13;;
20334;SDS011;10325;51.468;5.804;2022-08-18T01:59:14;12.33;;;11.23;;
20334;SDS011;10325;51.468;5.804;2022-08-18T02:01:46;12.43;;;11.33;;
20334;SDS011;10325;51.468;5.804;2022-08-18T02:04:25;11.07;;;10.13;;
20334;SDS011;10325;51.468;5.804;2022-08-18T02:07:05;11.43;;;10.43;;
20334;SDS011;10325;51.468;5.804;2022-08-18T02:09:39;11.57;;;10.47;;
20334;SDS011;10325;51.468;5.804;2022-08-18T02:12:16;11.73;;;10.57;;
20334;SDS011;10325;51.468;5.804;2022-08-18T02:14:45;11.77;;;10.77;;
20334;SDS011;10325;51.468;5.804;2022-08-18T02:17:18;11.40;;;10.50;;
20334;SDS011;10325;51.468;5.804;2022-08-18T02:19:47;11.40;;;10.40;;
20334;SDS011;10325;51.468;5.804;2022-08-18T02:22:20;11.10;;;10.17;;
20334;SDS011;10325;51.468;5.804;2022-08-18T02:25:00;11.47;;;10.47;;
20334;SDS011;10325;51.468;5.804;2022-08-18T02:27:27;11.40;;;10.40;;
20334;SDS011;10325;51.468;5.804;2022-08-18T02:30:03;11.13;;;10.23;;
20334;SDS011;10325;51.468;5.804;2022-08-18T02:32:34;11.13;;;10.20;;
20334;SDS011;10325;51.468;5.804;2022-08-18T02:35:04;10.90;;;10.10;;
20334;SDS011;10325;51.468;5.804;2022-08-18T02:37:39;11.37;;;10.37;;
20334;SDS011;10325;51.468;5.804;2022-08-18T02:40:11;11.33;;;10.27;;
20334;SDS011;10325;51.468;5.804;2022-08-18T02:42:41;10.67;;;9.77;;
20334;SDS011;10325;51.468;5.804;2022-08-18T02:45:10;11.47;;;10.43;;
20334;SDS011;10325;51.468;5.804;2022-08-18T02:47:40;10.93;;;9.93;;
20334;SDS011;10325;51.468;5.804;2022-08-18T02:50:12;11.77;;;10.77;;
20334;SDS011;10325;51.468;5.804;2022-08-18T02:52:44;10.80;;;9.90;;
20334;SDS011;10325;51.468;5.804;2022-08-18T02:55:14;11.53;;;10.43;;
20334;SDS011;10325;51.468;5.804;2022-08-18T02:57:50;10.80;;;9.80;;
20334;SDS011;10325;51.468;5.804;2022-08-18T03:00:20;9.93;;;9.03;;
20334;SDS011;10325;51.468;5.804;2022-08-18T03:02:53;11.07;;;10.10;;
20334;SDS011;10325;51.468;5.804;2022-08-18T03:05:25;10.80;;;9.80;;
20334;SDS011;10325;51.468;5.804;2022-08-18T03:07:58;10.27;;;9.30;;
20334;SDS011;10325;51.468;5.804;2022-08-18T03:10:28;10.70;;;9.67;;
20334;SDS011;10325;51.468;5.804;2022-08-18T03:12:59;11.10;;;10.10;;
20334;SDS011;10325;51.468;5.804;2022-08-18T03:15:31;10.77;;;9.63;;
20334;SDS011;10325;51.468;5.804;2022-08-18T03:18:01;10.40;;;9.50;;
20334;SDS011;10325;51.468;5.804;2022-08-18T03:20:29;9.97;;;9.13;;
20334;SDS011;10325;51.468;5.804;2022-08-18T03:23:03;10.10;;;9.23;;
20334;SDS011;10325;51.468;5.804;2022-08-18T03:25:35;10.47;;;9.53;;
20334;SDS011;10325;51.468;5.804;2022-08-18T03:28:04;10.67;;;9.57;;
20334;SDS011;10325;51.468;5.804;2022-08-18T03:30:32;10.20;;;9.40;;
20334;SDS011;10325;51.468;5.804;2022-08-18T03:33:02;9.30;;;8.43;;
20334;SDS011;10325;51.468;5.804;2022-08-18T03:35:33;9.97;;;9.10;;
20334;SDS011;10325;51.468;5.804;2022-08-18T03:38:04;9.97;;;9.17;;
20334;SDS011;10325;51.468;5.804;2022-08-18T03:40:34;9.47;;;8.67;;
20334;SDS011;10325;51.468;5.804;2022-08-18T03:43:05;9.77;;;8.97;;
20334;SDS011;10325;51.468;5.804;2022-08-18T03:46:01;9.97;;;9.10;;
20334;SDS011;10325;51.468;5.804;2022-08-18T03:48:32;9.33;;;8.53;;
20334;SDS011;10325;51.468;5.804;2022-08-18T03:51:06;9.50;;;8.70;;
20334;SDS011;10325;51.468;5.804;2022-08-18T03:53:36;9.60;;;8.80;;
20334;SDS011;10325;51.468;5.804;2022-08-18T03:56:11;9.27;;;8.47;;
20334;SDS011;10325;51.468;5.804;2022-08-18T03:58:48;9.23;;;8.40;;
20334;SDS011;10325;51.468;5.804;2022-08-18T04:01:21;8.83;;;8.03;;
20334;SDS011;10325;51.468;5.804;2022-08-18T04:03:55;10.60;;;8.87;;
20334;SDS011;10325;51.468;5.804;2022-08-18T04:06:31;9.53;;;8.63;;
20334;SDS011;10325;51.468;5.804;2022-08-18T04:09:07;8.50;;;7.80;;
20334;SDS011;10325;51.468;5.804;2022-08-18T04:11:38;9.23;;;8.43;;
20334;SDS011;10325;51.468;5.804;2022-08-18T04:14:13;8.73;;;8.03;;
20334;SDS011;10325;51.468;5.804;2022-08-18T04:16:48;9.10;;;8.40;;
20334;SDS011;10325;51.468;5.804;2022-08-18T04:19:19;10.17;;;9.17;;
20334;SDS011;10325;51.468;5.804;2022-08-18T04:21:54;9.23;;;8.43;;
20334;SDS011;10325;51.468;5.804;2022-08-18T04:24:30;8.77;;;8.00;;
20334;SDS011;10325;51.468;5.804;2022-08-18T04:27:06;9.23;;;8.27;;
20334;SDS011;10325;51.468;5.804;2022-08-18T04:29:44;9.00;;;8.20;;
20334;SDS011;10325;51.468;5.804;2022-08-18T04:32:17;7.93;;;7.13;;
20334;SDS011;10325;51.468;5.804;2022-08-18T04:34:58;7.27;;;6.67;;
20334;SDS011;10325;51.468;5.804;2022-08-18T04:37:42;8.97;;;7.33;;
20334;SDS011;10325;51.468;5.804;2022-08-18T04:40:12;10.17;;;7.67;;
20334;SDS011;10325;51.468;5.804;2022-08-18T04:42:57;8.50;;;7.37;;
20334;SDS011;10325;51.468;5.804;2022-08-18T04:45:29;8.30;;;7.60;;
20334;SDS011;10325;51.468;5.804;2022-08-18T04:48:01;8.57;;;7.83;;
20334;SDS011;10325;51.468;5.804;2022-08-18T04:50:36;8.30;;;7.50;;
20334;SDS011;10325;51.468;5.804;2022-08-18T04:53:09;7.80;;;7.10;;
20334;SDS011;10325;51.468;5.804;2022-08-18T04:55:59;7.90;;;7.07;;
20334;SDS011;10325;51.468;5.804;2022-08-18T04:58:46;7.43;;;6.73;;
20334;SDS011;10325;51.468;5.804;2022-08-18T05:01:23;7.70;;;6.97;;
20334;SDS011;10325;51.468;5.804;2022-08-18T05:04:10;7.63;;;6.93;;
20334;SDS011;10325;51.468;5.804;2022-08-18T05:06:43;7.93;;;7.17;;
20334;SDS011;10325;51.468;5.804;2022-08-18T05:09:15;7.70;;;7.00;;
20334;SDS011;10325;51.468;5.804;2022-08-18T05:11:48;7.87;;;6.77;;
20334;SDS011;10325;51.468;5.804;2022-08-18T05:14:20;8.47;;;6.80;;
20334;SDS011;10325;51.468;5.804;2022-08-18T05:16:56;7.60;;;6.90;;
20334;SDS011;10325;51.468;5.804;2022-08-18T05:19:25;7.87;;;7.23;;
20334;SDS011;10325;51.468;5.804;2022-08-18T05:21:57;8.03;;;7.30;;
20334;SDS011;10325;51.468;5.804;2022-08-18T05:24:29;8.37;;;7.57;;
20334;SDS011;10325;51.468;5.804;2022-08-18T05:27:04;7.80;;;7.00;;
20334;SDS011;10325;51.468;5.804;2022-08-18T05:29:34;8.70;;;7.87;;
20334;SDS011;10325;51.468;5.804;2022-08-18T05:32:12;8.33;;;7.60;;
20334;SDS011;10325;51.468;5.804;2022-08-18T05:35:06;8.63;;;7.73;;
20334;SDS011;10325;51.468;5.804;2022-08-18T05:37:39;9.27;;;8.47;;
20334;SDS011;10325;51.468;5.804;2022-08-18T05:40:15;14.23;;;7.40;;
20334;SDS011;10325;51.468;5.804;2022-08-18T05:42:51;8.20;;;7.40;;
20334;SDS011;10325;51.468;5.804;2022-08-18T05:45:27;8.10;;;7.30;;
20334;SDS011;10325;51.468;5.804;2022-08-18T05:48:03;8.23;;;7.53;;
20334;SDS011;10325;51.468;5.804;2022-08-18T05:50:35;10.50;;;7.57;;
20334;SDS011;10325;51.468;5.804;2022-08-18T05:53:08;9.47;;;8.30;;
20334;SDS011;10325;51.468;5.804;2022-08-18T05:55:54;9.83;;;7.97;;
20334;SDS011;10325;51.468;5.804;2022-08-18T05:58:49;9.90;;;8.90;;
20334;SDS011;10325;51.468;5.804;2022-08-18T06:01:21;8.70;;;7.97;;
20334;SDS011;10325;51.468;5.804;2022-08-18T06:03:55;9.77;;;8.97;;
20334;SDS011;10325;51.468;5.804;2022-08-18T06:06:30;8.80;;;8.00;;
20334;SDS011;10325;51.468;5.804;2022-08-18T06:12:21;9.37;;;8.47;;
20334;SDS011;10325;51.468;5.804;2022-08-18T06:15:16;9.03;;;8.23;;
20334;SDS011;10325;51.468;5.804;2022-08-18T06:20:41;9.10;;;8.20;;
20334;SDS011;10325;51.468;5.804;2022-08-18T06:23:24;8.70;;;7.90;;
20334;SDS011;10325;51.468;5.804;2022-08-18T06:31:47;9.80;;;8.80;;
20334;SDS011;10325;51.468;5.804;2022-08-18T06:34:50;8.97;;;8.07;;
20334;SDS011;10325;51.468;5.804;2022-08-18T06:40:39;9.53;;;8.63;;
20334;SDS011;10325;51.468;5.804;2022-08-18T06:43:11;9.57;;;8.67;;
20334;SDS011;10325;51.468;5.804;2022-08-18T06:45:51;8.50;;;7.80;;
20334;SDS011;10325;51.468;5.804;2022-08-18T06:48:30;8.10;;;7.27;;
20334;SDS011;10325;51.468;5.804;2022-08-18T06:51:00;9.10;;;8.17;;
20334;SDS011;10325;51.468;5.804;2022-08-18T07:07:58;7.23;;;6.53;;
20334;SDS011;10325;51.468;5.804;2022-08-18T07:10:46;11.93;;;8.03;;
20334;SDS011;10325;51.468;5.804;2022-08-18T07:13:24;8.40;;;7.50;;
20334;SDS011;10325;51.468;5.804;2022-08-18T07:19:06;9.13;;;8.23;;
20334;SDS011;10325;51.468;5.804;2022-08-18T07:21:38;9.07;;;8.17;;
20334;SDS011;10325;51.468;5.804;2022-08-18T07:24:17;9.13;;;8.33;;
20334;SDS011;10325;51.468;5.804;2022-08-18T07:27:05;11.23;;;8.70;;
20334;SDS011;10325;51.468;5.804;2022-08-18T07:29:38;11.07;;;10.07;;
20334;SDS011;10325;51.468;5.804;2022-08-18T07:32:15;11.27;;;10.00;;
20334;SDS011;10325;51.468;5.804;2022-08-18T07:34:51;11.03;;;10.10;;
20334;SDS011;10325;51.468;5.804;2022-08-18T07:37:23;10.87;;;9.87;;
20334;SDS011;10325;51.468;5.804;2022-08-18T07:40:00;10.80;;;9.90;;
20334;SDS011;10325;51.468;5.804;2022-08-18T07:42:45;11.93;;;10.77;;
20334;SDS011;10325;51.468;5.804;2022-08-18T07:45:40;11.53;;;10.33;;
20334;SDS011;10325;51.468;5.804;2022-08-18T07:51:23;10.80;;;9.70;;
20334;SDS011;10325;51.468;5.804;2022-08-18T08:06:13;101.93;;;35.20;;
20334;SDS011;10325;51.468;5.804;2022-08-18T08:17:21;36.20;;;17.70;;
20334;SDS011;10325;51.468;5.804;2022-08-18T08:23:04;14.77;;;10.23;;
20334;SDS011;10325;51.468;5.804;2022-08-18T08:25:52;11.13;;;9.63;;
20334;SDS011;10325;51.468;5.804;2022-08-18T08:31:15;9.63;;;8.50;;
20334;SDS011;10325;51.468;5.804;2022-08-18T08:36:49;9.53;;;8.27;;
20334;SDS011;10325;51.468;5.804;2022-08-18T08:42:22;7.97;;;7.17;;
20334;SDS011;10325;51.468;5.804;2022-08-18T08:45:05;8.70;;;6.93;;
20334;SDS011;10325;51.468;5.804;2022-08-18T08:50:46;9.33;;;8.53;;
20334;SDS011;10325;51.468;5.804;2022-08-18T08:56:08;7.90;;;6.97;;
20334;SDS011;10325;51.468;5.804;2022-08-18T08:58:45;8.13;;;7.27;;
20334;SDS011;10325;51.468;5.804;2022-08-18T09:01:29;8.50;;;6.40;;
20334;SDS011;10325;51.468;5.804;2022-08-18T09:04:12;7.27;;;6.53;;
20334;SDS011;10325;51.468;5.804;2022-08-18T09:06:51;8.53;;;7.03;;
20334;SDS011;10325;51.468;5.804;2022-08-18T09:09:54;16.47;;;7.93;;
20334;SDS011;10325;51.468;5.804;2022-08-18T09:15:44;37.23;;;13.70;;
20334;SDS011;10325;51.468;5.804;2022-08-18T09:20:47;43.80;;;11.60;;
20334;SDS011;10325;51.468;5.804;2022-08-18T09:23:27;36.83;;;11.20;;
20334;SDS011;10325;51.468;5.804;2022-08-18T09:25:59;31.57;;;10.00;;
20334;SDS011;10325;51.468;5.804;2022-08-18T09:28:56;46.57;;;10.83;;
20334;SDS011;10325;51.468;5.804;2022-08-18T09:31:32;32.17;;;9.97;;
20334;SDS011;10325;51.468;5.804;2022-08-18T09:37:21;28.83;;;8.20;;
20334;SDS011;10325;51.468;5.804;2022-08-18T09:40:14;28.03;;;8.63;;
20334;SDS011;10325;51.468;5.804;2022-08-18T09:46:13;28.13;;;7.93;;
20334;SDS011;10325;51.468;5.804;2022-08-18T09:52:00;12.70;;;6.63;;
20334;SDS011;10325;51.468;5.804;2022-08-18T09:54:30;11.87;;;7.03;;
20334;SDS011;10325;51.468;5.804;2022-08-18T09:57:18;11.37;;;5.87;;
20334;SDS011;10325;51.468;5.804;2022-08-18T09:59:52;11.23;;;6.10;;
20334;SDS011;10325;51.468;5.804;2022-08-18T10:16:30;6.67;;;6.00;;
20334;SDS011;10325;51.468;5.804;2022-08-18T10:22:32;6.63;;;5.47;;
20334;SDS011;10325;51.468;5.804;2022-08-18T10:25:11;6.40;;;5.20;;
20334;SDS011;10325;51.468;5.804;2022-08-18T10:27:53;7.23;;;6.20;;
20334;SDS011;10325;51.468;5.804;2022-08-18T10:30:45;6.93;;;6.33;;
20334;SDS011;10325;51.468;5.804;2022-08-18T10:37:10;5.77;;;5.27;;
20334;SDS011;10325;51.468;5.804;2022-08-18T10:39:23;5.37;;;4.73;;
20334;SDS011;10325;51.468;5.804;2022-08-18T10:51:15;9.00;;;6.40;;
20334;SDS011;10325;51.468;5.804;2022-08-18T11:00:11;7.67;;;6.80;;
20334;SDS011;10325;51.468;5.804;2022-08-18T11:05:10;5.83;;;5.33;;
20334;SDS011;10325;51.468;5.804;2022-08-18T11:07:40;7.73;;;5.70;;
20334;SDS011;10325;51.468;5.804;2022-08-18T11:10:46;6.53;;;5.70;;
20334;SDS011;10325;51.468;5.804;2022-08-18T11:19:39;7.57;;;6.50;;
20334;SDS011;10325;51.468;5.804;2022-08-18T11:22:25;8.30;;;7.60;;
20334;SDS011;10325;51.468;5.804;2022-08-18T11:27:56;9.10;;;8.20;;
20334;SDS011;10325;51.468;5.804;2022-08-18T11:30:37;8.57;;;7.77;;
20334;SDS011;10325;51.468;5.804;2022-08-18T11:33:14;7.57;;;6.87;;
20334;SDS011;10325;51.468;5.804;2022-08-18T11:36:09;6.40;;;5.80;;
20334;SDS011;10325;51.468;5.804;2022-08-18T11:38:51;8.07;;;6.67;;
20334;SDS011;10325;51.468;5.804;2022-08-18T11:41:27;7.13;;;6.43;;
20334;SDS011;10325;51.468;5.804;2022-08-18T11:44:20;7.30;;;5.97;;
20334;SDS011;10325;51.468;5.804;2022-08-18T11:46:54;7.60;;;6.87;;
20334;SDS011;10325;51.468;5.804;2022-08-18T11:49:31;6.40;;;5.33;;
20334;SDS011;10325;51.468;5.804;2022-08-18T11:52:17;7.07;;;6.23;;
20334;SDS011;10325;51.468;5.804;2022-08-18T11:55:03;7.03;;;6.20;;
20334;SDS011;10325;51.468;5.804;2022-08-18T11:57:53;8.50;;;7.60;;
20334;SDS011;10325;51.468;5.804;2022-08-18T12:00:40;7.73;;;6.13;;
20334;SDS011;10325;51.468;5.804;2022-08-18T12:03:16;7.50;;;5.20;;
20334;SDS011;10325;51.468;5.804;2022-08-18T12:06:07;7.23;;;6.50;;
20334;SDS011;10325;51.468;5.804;2022-08-18T12:09:05;7.10;;;6.40;;
20334;SDS011;10325;51.468;5.804;2022-08-18T12:11:36;7.63;;;6.83;;
20334;SDS011;10325;51.468;5.804;2022-08-18T12:14:15;6.27;;;5.53;;
20334;SDS011;10325;51.468;5.804;2022-08-18T12:17:01;7.37;;;5.43;;
20334;SDS011;10325;51.468;5.804;2022-08-18T12:19:36;6.30;;;5.67;;
20334;SDS011;10325;51.468;5.804;2022-08-18T12:22:12;8.87;;;6.50;;
20334;SDS011;10325;51.468;5.804;2022-08-18T12:24:50;8.13;;;6.73;;
20334;SDS011;10325;51.468;5.804;2022-08-18T12:27:26;6.90;;;6.30;;
20334;SDS011;10325;51.468;5.804;2022-08-18T12:30:04;6.73;;;6.03;;
20334;SDS011;10325;51.468;5.804;2022-08-18T12:32:42;6.53;;;5.80;;
20334;SDS011;10325;51.468;5.804;2022-08-18T12:35:17;6.13;;;5.60;;
20334;SDS011;10325;51.468;5.804;2022-08-18T12:37:49;6.17;;;5.20;;
20334;SDS011;10325;51.468;5.804;2022-08-18T12:40:27;7.37;;;6.27;;
20334;SDS011;10325;51.468;5.804;2022-08-18T12:42:57;8.43;;;6.20;;
20334;SDS011;10325;51.468;5.804;2022-08-18T12:45:29;7.83;;;5.40;;
20334;SDS011;10325;51.468;5.804;2022-08-18T12:47:58;10.83;;;5.70;;
20334;SDS011;10325;51.468;5.804;2022-08-18T12:50:30;7.33;;;5.53;;
20334;SDS011;10325;51.468;5.804;2022-08-18T12:53:21;7.40;;;4.90;;
20334;SDS011;10325;51.468;5.804;2022-08-18T12:56:08;7.27;;;5.50;;
20334;SDS011;10325;51.468;5.804;2022-08-18T12:58:53;6.10;;;5.10;;
20334;SDS011;10325;51.468;5.804;2022-08-18T13:01:23;5.23;;;4.73;;
20334;SDS011;10325;51.468;5.804;2022-08-18T13:03:53;5.30;;;4.90;;
20334;SDS011;10325;51.468;5.804;2022-08-18T13:06:46;5.43;;;4.73;;
20334;SDS011;10325;51.468;5.804;2022-08-18T13:09:26;17.57;;;4.33;;
20334;SDS011;10325;51.468;5.804;2022-08-18T13:12:08;4.97;;;4.43;;
20334;SDS011;10325;51.468;5.804;2022-08-18T13:14:44;5.03;;;4.53;;
20334;SDS011;10325;51.468;5.804;2022-08-18T13:17:13;5.33;;;4.63;;
20334;SDS011;10325;51.468;5.804;2022-08-18T13:20:05;4.80;;;4.30;;
20334;SDS011;10325;51.468;5.804;2022-08-18T13:22:48;5.40;;;4.70;;
20334;SDS011;10325;51.468;5.804;2022-08-18T13:25:26;5.80;;;4.60;;
20334;SDS011;10325;51.468;5.804;2022-08-18T13:28:06;4.97;;;4.47;;
20334;SDS011;10325;51.468;5.804;2022-08-18T13:30:41;4.43;;;4.13;;
20334;SDS011;10325;51.468;5.804;2022-08-18T13:33:32;6.93;;;4.50;;
20334;SDS011;10325;51.468;5.804;2022-08-18T13:36:25;4.63;;;4.03;;
20334;SDS011;10325;51.468;5.804;2022-08-18T13:39:15;5.10;;;4.63;;
20334;SDS011;10325;51.468;5.804;2022-08-18T13:41:44;4.87;;;4.37;;
20334;SDS011;10325;51.468;5.804;2022-08-18T13:44:21;5.03;;;4.50;;
20334;SDS011;10325;51.468;5.804;2022-08-18T13:46:55;5.90;;;4.90;;
20334;SDS011;10325;51.468;5.804;2022-08-18T13:49:27;5.77;;;5.17;;
20334;SDS011;10325;51.468;5.804;2022-08-18T13:51:57;6.20;;;5.60;;
20334;SDS011;10325;51.468;5.804;2022-08-18T13:54:44;5.40;;;4.90;;
20334;SDS011;10325;51.468;5.804;2022-08-18T13:57:19;7.10;;;5.60;;
20334;SDS011;10325;51.468;5.804;2022-08-18T13:59:49;5.27;;;4.77;;
20334;SDS011;10325;51.468;5.804;2022-08-18T14:02:19;4.90;;;4.50;;
20334;SDS011;10325;51.468;5.804;2022-08-18T14:04:53;5.80;;;5.30;;
20334;SDS011;10325;51.468;5.804;2022-08-18T14:07:26;5.83;;;5.00;;
20334;SDS011;10325;51.468;5.804;2022-08-18T14:10:02;7.97;;;5.10;;
20334;SDS011;10325;51.468;5.804;2022-08-18T14:12:40;6.17;;;5.67;;
20334;SDS011;10325;51.468;5.804;2022-08-18T14:15:13;9.03;;;5.10;;
20334;SDS011;10325;51.468;5.804;2022-08-18T14:17:45;5.33;;;4.83;;
20334;SDS011;10325;51.468;5.804;2022-08-18T14:20:18;7.43;;;5.53;;
20334;SDS011;10325;51.468;5.804;2022-08-18T14:23:15;6.43;;;5.77;;
20334;SDS011;10325;51.468;5.804;2022-08-18T14:26:04;6.30;;;5.53;;
20334;SDS011;10325;51.468;5.804;2022-08-18T14:28:54;6.70;;;5.37;;
20334;SDS011;10325;51.468;5.804;2022-08-18T14:31:25;5.77;;;5.20;;
20334;SDS011;10325;51.468;5.804;2022-08-18T14:33:54;8.57;;;5.23;;
20334;SDS011;10325;51.468;5.804;2022-08-18T14:36:29;6.20;;;5.53;;
20334;SDS011;10325;51.468;5.804;2022-08-18T14:39:03;6.00;;;5.50;;
20334;SDS011;10325;51.468;5.804;2022-08-18T14:41:39;5.90;;;5.30;;
20334;SDS011;10325;51.468;5.804;2022-08-18T14:44:23;6.90;;;5.07;;
20334;SDS011;10325;51.468;5.804;2022-08-18T14:46:58;5.27;;;4.87;;
20334;SDS011;10325;51.468;5.804;2022-08-18T14:49:27;5.47;;;4.97;;
20334;SDS011;10325;51.468;5.804;2022-08-18T14:52:09;5.10;;;4.60;;
20334;SDS011;10325;51.468;5.804;2022-08-18T14:54:45;5.47;;;4.97;;
20334;SDS011;10325;51.468;5.804;2022-08-18T14:57:20;5.50;;;5.00;;
20334;SDS011;10325;51.468;5.804;2022-08-18T14:59:52;5.27;;;4.77;;
20334;SDS011;10325;51.468;5.804;2022-08-18T15:02:24;5.10;;;4.40;;
20334;SDS011;10325;51.468;5.804;2022-08-18T15:04:53;5.23;;;4.77;;
20334;SDS011;10325;51.468;5.804;2022-08-18T15:07:27;5.53;;;4.90;;
20334;SDS011;10325;51.468;5.804;2022-08-18T15:09:59;6.77;;;6.07;;
20334;SDS011;10325;51.468;5.804;2022-08-18T15:12:42;7.10;;;6.50;;
20334;SDS011;10325;51.468;5.804;2022-08-18T15:15:17;7.43;;;5.10;;
20334;SDS011;10325;51.468;5.804;2022-08-18T15:17:50;6.33;;;4.93;;
20334;SDS011;10325;51.468;5.804;2022-08-18T15:20:24;5.60;;;5.10;;
20334;SDS011;10325;51.468;5.804;2022-08-18T15:23:01;6.43;;;5.93;;
20334;SDS011;10325;51.468;5.804;2022-08-18T15:25:55;6.30;;;5.80;;
20334;SDS011;10325;51.468;5.804;2022-08-18T15:28:25;6.10;;;5.60;;
20334;SDS011;10325;51.468;5.804;2022-08-18T15:30:54;5.43;;;5.00;;
20334;SDS011;10325;51.468;5.804;2022-08-18T15:33:46;5.17;;;4.77;;
20334;SDS011;10325;51.468;5.804;2022-08-18T15:36:19;5.43;;;5.03;;
20334;SDS011;10325;51.468;5.804;2022-08-18T15:38:57;5.53;;;5.13;;
20334;SDS011;10325;51.468;5.804;2022-08-18T15:41:38;6.10;;;5.60;;
20334;SDS011;10325;51.468;5.804;2022-08-18T15:44:12;6.00;;;5.50;;
20334;SDS011;10325;51.468;5.804;2022-08-18T15:46:42;5.70;;;5.20;;
20334;SDS011;10325;51.468;5.804;2022-08-18T15:49:20;5.93;;;5.30;;
20334;SDS011;10325;51.468;5.804;2022-08-18T15:51:53;4.67;;;4.37;;
20334;SDS011;10325;51.468;5.804;2022-08-18T15:54:25;5.23;;;4.73;;
20334;SDS011;10325;51.468;5.804;2022-08-18T15:56:54;6.40;;;5.10;;
20334;SDS011;10325;51.468;5.804;2022-08-18T15:59:25;4.90;;;4.50;;
20334;SDS011;10325;51.468;5.804;2022-08-18T16:02:06;5.17;;;4.70;;
20334;SDS011;10325;51.468;5.804;2022-08-18T16:04:39;4.70;;;4.40;;
20334;SDS011;10325;51.468;5.804;2022-08-18T16:07:12;4.40;;;4.10;;
20334;SDS011;10325;51.468;5.804;2022-08-18T16:10:07;5.80;;;5.17;;
20334;SDS011;10325;51.468;5.804;2022-08-18T16:12:38;5.27;;;4.87;;
20334;SDS011;10325;51.468;5.804;2022-08-18T16:15:18;4.80;;;4.40;;
20334;SDS011;10325;51.468;5.804;2022-08-18T16:17:52;4.70;;;4.23;;
20334;SDS011;10325;51.468;5.804;2022-08-18T16:20:25;5.10;;;4.60;;
20334;SDS011;10325;51.468;5.804;2022-08-18T16:22:57;5.00;;;4.60;;
20334;SDS011;10325;51.468;5.804;2022-08-18T16:25:28;5.10;;;4.70;;
20334;SDS011;10325;51.468;5.804;2022-08-18T16:28:02;5.70;;;5.17;;
20334;SDS011;10325;51.468;5.804;2022-08-18T16:30:34;5.33;;;4.90;;
20334;SDS011;10325;51.468;5.804;2022-08-18T16:33:05;5.23;;;4.73;;
20334;SDS011;10325;51.468;5.804;2022-08-18T16:35:35;5.27;;;4.87;;
20334;SDS011;10325;51.468;5.804;2022-08-18T16:38:10;5.80;;;5.30;;
20334;SDS011;10325;51.468;5.804;2022-08-18T16:40:45;5.17;;;4.70;;
20334;SDS011;10325;51.468;5.804;2022-08-18T16:43:17;4.57;;;4.17;;
20334;SDS011;10325;51.468;5.804;2022-08-18T16:45:49;4.43;;;4.03;;
20334;SDS011;10325;51.468;5.804;2022-08-18T16:48:19;5.67;;;4.60;;
20334;SDS011;10325;51.468;5.804;2022-08-18T16:50:59;6.27;;;5.70;;
20334;SDS011;10325;51.468;5.804;2022-08-18T16:53:34;5.83;;;4.73;;
20334;SDS011;10325;51.468;5.804;2022-08-18T16:56:12;6.13;;;5.63;;
20334;SDS011;10325;51.468;5.804;2022-08-18T16:58:45;5.60;;;5.10;;
20334;SDS011;10325;51.468;5.804;2022-08-18T17:01:34;5.43;;;5.03;;
20334;SDS011;10325;51.468;5.804;2022-08-18T17:04:27;5.40;;;4.90;;
20334;SDS011;10325;51.468;5.804;2022-08-18T17:06:56;5.30;;;4.90;;
20334;SDS011;10325;51.468;5.804;2022-08-18T17:09:29;5.27;;;4.87;;
20334;SDS011;10325;51.468;5.804;2022-08-18T17:12:00;4.97;;;4.57;;
20334;SDS011;10325;51.468;5.804;2022-08-18T17:14:32;5.07;;;4.63;;
20334;SDS011;10325;51.468;5.804;2022-08-18T17:17:03;4.67;;;4.37;;
20334;SDS011;10325;51.468;5.804;2022-08-18T17:19:34;4.80;;;4.33;;
20334;SDS011;10325;51.468;5.804;2022-08-18T17:22:06;5.20;;;4.80;;
20334;SDS011;10325;51.468;5.804;2022-08-18T17:24:36;5.90;;;4.60;;
20334;SDS011;10325;51.468;5.804;2022-08-18T17:27:21;5.20;;;4.80;;
20334;SDS011;10325;51.468;5.804;2022-08-18T17:30:13;5.03;;;4.63;;
20334;SDS011;10325;51.468;5.804;2022-08-18T17:32:45;5.17;;;4.67;;
20334;SDS011;10325;51.468;5.804;2022-08-18T17:35:33;4.67;;;4.30;;
20334;SDS011;10325;51.468;5.804;2022-08-18T17:38:24;5.50;;;5.00;;
20334;SDS011;10325;51.468;5.804;2022-08-18T17:41:01;5.73;;;5.33;;
20334;SDS011;10325;51.468;5.804;2022-08-18T17:43:34;6.13;;;4.87;;
20334;SDS011;10325;51.468;5.804;2022-08-18T17:46:17;5.90;;;4.67;;
20334;SDS011;10325;51.468;5.804;2022-08-18T17:49:02;9.20;;;5.00;;
20334;SDS011;10325;51.468;5.804;2022-08-18T17:51:37;5.30;;;4.63;;
20334;SDS011;10325;51.468;5.804;2022-08-18T17:56:56;6.40;;;5.80;;
20334;SDS011;10325;51.468;5.804;2022-08-18T18:02:22;5.83;;;4.60;;